sensor_id;sensor_type;location;lat;lon;timestamp;pressure;altitude;pressure_sealevel;temperature;humidity
22653;BME280;11493;43.344;26.226;2024-01-30T00:00:15;101632.72;;;1.75;100.00
22653;BME280;11493;43.344;26.226;2024-01-30T00:02:42;101628.59;;;1.79;100.00
22653;BME280;11493;43.344;26.226;2024-01-30T00:05:10;101631.72;;;1.83;100.00
22653;BME280;11493;43.344;26.226;2024-01-30T00:07:37;101641.19;;;1.93;100.00
22653;BME280;11493;43.344;26.226;2024-01-30T00:10:04;101651.88;;;2.02;100.00
22653;BME280;11493;43.344;26.226;2024-01-30T00:12:33;101629.91;;;1.96;100.00
22653;BME280;11493;43.344;26.226;2024-01-30T00:14:59;101631.59;;;1.97;100.00
22653;BME280;11493;43.344;26.226;2024-01-30T00:17:27;101649.41;;;2.07;100.00
22653;BME280;11493;43.344;26.226;2024-01-30T00:19:54;101633.25;;;1.92;100.00
22653;BME280;11493;43.344;26.226;2024-01-30T00:22:21;101643.13;;;2.06;100.00
22653;BME280;11493;43.344;26.226;2024-01-30T00:24:48;101642.91;;;2.01;100.00
22653;BME280;11493;43.344;26.226;2024-01-30T00:27:15;101654.66;;;2.15;100.00
22653;BME280;11493;43.344;26.226;2024-01-30T00:29:43;101649.63;;;2.12;100.00
22653;BME280;11493;43.344;26.226;2024-01-30T00:32:10;101626.09;;;1.84;100.00
22653;BME280;11493;43.344;26.226;2024-01-30T00:34:37;101649.28;;;1.87;100.00
22653;BME280;11493;43.344;26.226;2024-01-30T00:37:04;101650.56;;;1.91;100.00
22653;BME280;11493;43.344;26.226;2024-01-30T00:39:31;101662.09;;;2.00;100.00
22653;BME280;11493;43.344;26.226;2024-01-30T00:41:58;101656.19;;;1.89;100.00
22653;BME280;11493;43.344;26.226;2024-01-30T00:44:25;101638.97;;;1.69;100.00
22653;BME280;11493;43.344;26.226;2024-01-30T00:46:53;101627.22;;;1.62;100.00
22653;BME280;11493;43.344;26.226;2024-01-30T00:49:20;101631.84;;;1.68;100.00
22653;BME280;11493;43.344;26.226;2024-01-30T00:51:47;101650.50;;;1.78;100.00
22653;BME280;11493;43.344;26.226;2024-01-30T00:54:14;101648.84;;;1.83;100.00
22653;BME280;11493;43.344;26.226;2024-01-30T00:56:42;101647.69;;;1.64;100.00
22653;BME280;11493;43.344;26.226;2024-01-30T00:59:08;101646.66;;;1.65;100.00
22653;BME280;11493;43.344;26.226;2024-01-30T01:01:35;101642.97;;;1.73;100.00
22653;BME280;11493;43.344;26.226;2024-01-30T01:04:03;101618.50;;;1.67;100.00
22653;BME280;11493;43.344;26.226;2024-01-30T01:06:30;101625.59;;;1.68;100.00
22653;BME280;11493;43.344;26.226;2024-01-30T01:08:57;101631.38;;;1.58;100.00
22653;BME280;11493;43.344;26.226;2024-01-30T01:11:27;101631.38;;;1.58;100.00
22653;BME280;11493;43.344;26.226;2024-01-30T01:13:54;101625.75;;;1.59;100.00
22653;BME280;11493;43.344;26.226;2024-01-30T01:16:21;101631.63;;;1.63;100.00
22653;BME280;11493;43.344;26.226;2024-01-30T01:18:48;101624.91;;;1.59;100.00
22653;BME280;11493;43.344;26.226;2024-01-30T01:21:15;101627.63;;;1.59;100.00
22653;BME280;11493;43.344;26.226;2024-01-30T01:23:43;101626.59;;;1.60;100.00
22653;BME280;11493;43.344;26.226;2024-01-30T01:26:10;101631.22;;;1.66;100.00
22653;BME280;11493;43.344;26.226;2024-01-30T01:28:40;101635.97;;;1.57;100.00
22653;BME280;11493;43.344;26.226;2024-01-30T01:31:08;101630.94;;;1.54;100.00
22653;BME280;11493;43.344;26.226;2024-01-30T01:33:35;101642.44;;;1.56;100.00
22653;BME280;11493;43.344;26.226;2024-01-30T01:36:04;101644.16;;;1.64;100.00
22653;BME280;11493;43.344;26.226;2024-01-30T01:38:31;101634.28;;;1.56;100.00
22653;BME280;11493;43.344;26.226;2024-01-30T01:40:58;101631.13;;;1.53;100.00
22653;BME280;11493;43.344;26.226;2024-01-30T01:43:25;101643.47;;;1.55;100.00
22653;BME280;11493;43.344;26.226;2024-01-30T01:45:52;101620.47;;;1.45;100.00
22653;BME280;11493;43.344;26.226;2024-01-30T01:48:19;101649.97;;;1.61;100.00
22653;BME280;11493;43.344;26.226;2024-01-30T01:50:47;101638.63;;;1.51;100.00
22653;BME280;11493;43.344;26.226;2024-01-30T01:53:15;101630.75;;;1.56;100.00
22653;BME280;11493;43.344;26.226;2024-01-30T01:55:42;101624.66;;;1.54;100.00
22653;BME280;11493;43.344;26.226;2024-01-30T01:58:09;101639.75;;;1.63;100.00
22653;BME280;11493;43.344;26.226;2024-01-30T02:00:39;101626.59;;;1.60;100.00
22653;BME280;11493;43.344;26.226;2024-01-30T02:03:10;101636.81;;;1.58;100.00
22653;BME280;11493;43.344;26.226;2024-01-30T02:05:41;101615.06;;;1.51;100.00
22653;BME280;11493;43.344;26.226;2024-01-30T02:08:08;101642.28;;;1.64;100.00
22653;BME280;11493;43.344;26.226;2024-01-30T02:10:36;101634.69;;;1.53;100.00
22653;BME280;11493;43.344;26.226;2024-01-30T02:13:03;101623.19;;;1.45;100.00
22653;BME280;11493;43.344;26.226;2024-01-30T02:15:31;101630.88;;;1.41;100.00
22653;BME280;11493;43.344;26.226;2024-01-30T02:17:58;101630.19;;;1.33;100.00
22653;BME280;11493;43.344;26.226;2024-01-30T02:20:29;101640.06;;;1.40;100.00
22653;BME280;11493;43.344;26.226;2024-01-30T02:22:58;101637.94;;;1.36;100.00
22653;BME280;11493;43.344;26.226;2024-01-30T02:25:38;101626.41;;;1.27;100.00
22653;BME280;11493;43.344;26.226;2024-01-30T02:28:06;101627.94;;;1.36;100.00
22653;BME280;11493;43.344;26.226;2024-01-30T02:30:32;101635.47;;;1.41;100.00
22653;BME280;11493;43.344;26.226;2024-01-30T02:33:00;101638.19;;;1.41;100.00
22653;BME280;11493;43.344;26.226;2024-01-30T02:35:27;101638.63;;;1.51;100.00
22653;BME280;11493;43.344;26.226;2024-01-30T02:37:57;101637.41;;;1.53;100.00
22653;BME280;11493;43.344;26.226;2024-01-30T02:40:24;101623.00;;;1.53;100.00
22653;BME280;11493;43.344;26.226;2024-01-30T02:42:51;101634.44;;;1.42;100.00
22653;BME280;11493;43.344;26.226;2024-01-30T02:45:18;101616.63;;;1.33;100.00
22653;BME280;11493;43.344;26.226;2024-01-30T02:47:45;101601.59;;;1.30;100.00
22653;BME280;11493;43.344;26.226;2024-01-30T02:50:13;101614.56;;;1.35;100.00
22653;BME280;11493;43.344;26.226;2024-01-30T02:52:42;101611.59;;;1.29;100.00
22653;BME280;11493;43.344;26.226;2024-01-30T02:55:12;101633.41;;;1.43;100.00
22653;BME280;11493;43.344;26.226;2024-01-30T02:57:39;101636.75;;;1.45;100.00
22653;BME280;11493;43.344;26.226;2024-01-30T03:00:06;101619.50;;;1.24;100.00
22653;BME280;11493;43.344;26.226;2024-01-30T03:02:36;101610.47;;;1.17;100.00
22653;BME280;11493;43.344;26.226;2024-01-30T03:05:05;101600.22;;;1.13;100.00
22653;BME280;11493;43.344;26.226;2024-01-30T03:07:33;101626.19;;;1.28;100.00
22653;BME280;11493;43.344;26.226;2024-01-30T03:10:00;101620.66;;;1.15;100.00
22653;BME280;11493;43.344;26.226;2024-01-30T03:12:27;101609.56;;;1.10;100.00
22653;BME280;11493;43.344;26.226;2024-01-30T03:14:54;101615.00;;;1.10;100.00
22653;BME280;11493;43.344;26.226;2024-01-30T03:17:21;101608.75;;;1.10;100.00
22653;BME280;11493;43.344;26.226;2024-01-30T03:19:48;101594.69;;;0.99;100.00
22653;BME280;11493;43.344;26.226;2024-01-30T03:22:15;101628.66;;;1.23;100.00
22653;BME280;11493;43.344;26.226;2024-01-30T03:24:42;101608.19;;;1.21;100.00
22653;BME280;11493;43.344;26.226;2024-01-30T03:27:10;101596.66;;;1.12;100.00
22653;BME280;11493;43.344;26.226;2024-01-30T03:29:37;101604.00;;;1.18;100.00
22653;BME280;11493;43.344;26.226;2024-01-30T03:32:04;101589.97;;;1.08;100.00
22653;BME280;11493;43.344;26.226;2024-01-30T03:34:31;101604.41;;;1.15;100.00
22653;BME280;11493;43.344;26.226;2024-01-30T03:36:59;101603.22;;;0.96;100.00
22653;BME280;11493;43.344;26.226;2024-01-30T03:39:26;101603.84;;;0.98;100.00
22653;BME280;11493;43.344;26.226;2024-01-30T03:41:53;101589.47;;;0.98;100.00
22653;BME280;11493;43.344;26.226;2024-01-30T03:44:20;101608.09;;;1.08;100.00
22653;BME280;11493;43.344;26.226;2024-01-30T03:46:47;101628.16;;;1.13;100.00
22653;BME280;11493;43.344;26.226;2024-01-30T03:49:14;101595.13;;;1.03;100.00
22653;BME280;11493;43.344;26.226;2024-01-30T03:51:41;101616.09;;;1.16;100.00
22653;BME280;11493;43.344;26.226;2024-01-30T03:54:11;101578.16;;;0.94;100.00
22653;BME280;11493;43.344;26.226;2024-01-30T03:56:38;101593.84;;;0.99;100.00
22653;BME280;11493;43.344;26.226;2024-01-30T03:59:06;101589.22;;;0.93;100.00
22653;BME280;11493;43.344;26.226;2024-01-30T04:01:33;101586.75;;;0.98;100.00
22653;BME280;11493;43.344;26.226;2024-01-30T04:04:00;101614.47;;;1.21;100.00
22653;BME280;11493;43.344;26.226;2024-01-30T04:06:28;101608.00;;;1.22;100.00
22653;BME280;11493;43.344;26.226;2024-01-30T04:08:55;101611.75;;;1.21;100.00
22653;BME280;11493;43.344;26.226;2024-01-30T04:11:22;101604.22;;;1.17;100.00
22653;BME280;11493;43.344;26.226;2024-01-30T04:13:49;101596.41;;;1.07;100.00
22653;BME280;11493;43.344;26.226;2024-01-30T04:16:20;101611.91;;;1.13;100.00
22653;BME280;11493;43.344;26.226;2024-01-30T04:18:49;101615.88;;;1.17;100.00
22653;BME280;11493;43.344;26.226;2024-01-30T04:21:16;101605.63;;;1.13;100.00
22653;BME280;11493;43.344;26.226;2024-01-30T04:23:43;101618.84;;;1.22;100.00
22653;BME280;11493;43.344;26.226;2024-01-30T04:26:10;101617.41;;;1.26;100.00
22653;BME280;11493;43.344;26.226;2024-01-30T04:28:37;101617.63;;;1.25;100.00
22653;BME280;11493;43.344;26.226;2024-01-30T04:31:04;101641.88;;;1.33;100.00
22653;BME280;11493;43.344;26.226;2024-01-30T04:33:31;101629.59;;;1.37;100.00
22653;BME280;11493;43.344;26.226;2024-01-30T04:35:58;101638.38;;;1.39;100.00
22653;BME280;11493;43.344;26.226;2024-01-30T04:38:25;101637.53;;;1.39;100.00
22653;BME280;11493;43.344;26.226;2024-01-30T04:40:53;101612.09;;;1.40;100.00
22653;BME280;11493;43.344;26.226;2024-01-30T04:43:20;101613.69;;;1.27;100.00
22653;BME280;11493;43.344;26.226;2024-01-30T04:45:49;101635.41;;;1.34;100.00
22653;BME280;11493;43.344;26.226;2024-01-30T04:48:16;101619.00;;;1.14;100.00
22653;BME280;11493;43.344;26.226;2024-01-30T04:50:43;101639.91;;;1.20;100.00
22653;BME280;11493;43.344;26.226;2024-01-30T04:53:10;101638.63;;;1.16;100.00
22653;BME280;11493;43.344;26.226;2024-01-30T04:55:37;101625.16;;;1.02;100.00
22653;BME280;11493;43.344;26.226;2024-01-30T04:58:04;101618.88;;;1.01;100.00
22653;BME280;11493;43.344;26.226;2024-01-30T05:00:32;101643.78;;;1.11;100.00
22653;BME280;11493;43.344;26.226;2024-01-30T05:02:59;101646.38;;;1.19;100.00
22653;BME280;11493;43.344;26.226;2024-01-30T05:05:26;101640.78;;;1.27;100.00
22653;BME280;11493;43.344;26.226;2024-01-30T05:07:52;101630.16;;;1.26;100.00
22653;BME280;11493;43.344;26.226;2024-01-30T05:10:20;101643.75;;;1.33;100.00
22653;BME280;11493;43.344;26.226;2024-01-30T05:12:47;101639.13;;;1.26;100.00
22653;BME280;11493;43.344;26.226;2024-01-30T05:15:14;101637.59;;;1.17;100.00
22653;BME280;11493;43.344;26.226;2024-01-30T05:17:41;101629.19;;;1.12;100.00
22653;BME280;11493;43.344;26.226;2024-01-30T05:20:09;101641.34;;;1.16;100.00
22653;BME280;11493;43.344;26.226;2024-01-30T05:22:37;101636.56;;;1.18;100.00
22653;BME280;11493;43.344;26.226;2024-01-30T05:25:06;101610.13;;;0.99;100.00
22653;BME280;11493;43.344;26.226;2024-01-30T05:27:33;101634.88;;;1.17;100.00
22653;BME280;11493;43.344;26.226;2024-01-30T05:30:00;101625.84;;;1.10;100.00
22653;BME280;11493;43.344;26.226;2024-01-30T05:32:27;101648.25;;;1.19;100.00
22653;BME280;11493;43.344;26.226;2024-01-30T05:34:54;101639.00;;;1.13;100.00
22653;BME280;11493;43.344;26.226;2024-01-30T05:37:21;101625.59;;;1.05;100.00
22653;BME280;11493;43.344;26.226;2024-01-30T05:39:48;101629.97;;;1.06;100.00
22653;BME280;11493;43.344;26.226;2024-01-30T05:42:16;101641.91;;;1.12;100.00
22653;BME280;11493;43.344;26.226;2024-01-30T05:44:43;101652.03;;;1.24;100.00
22653;BME280;11493;43.344;26.226;2024-01-30T05:47:10;101651.66;;;1.27;100.00
22653;BME280;11493;43.344;26.226;2024-01-30T05:49:37;101652.44;;;1.21;100.00
22653;BME280;11493;43.344;26.226;2024-01-30T05:52:06;101670.47;;;1.36;100.00
22653;BME280;11493;43.344;26.226;2024-01-30T05:54:33;101644.28;;;1.21;100.00
22653;BME280;11493;43.344;26.226;2024-01-30T05:57:01;101664.63;;;1.32;100.00
22653;BME280;11493;43.344;26.226;2024-01-30T05:59:28;101670.09;;;1.39;100.00
22653;BME280;11493;43.344;26.226;2024-01-30T06:01:55;101646.66;;;1.31;100.00
22653;BME280;11493;43.344;26.226;2024-01-30T06:04:23;101657.31;;;1.33;100.00
22653;BME280;11493;43.344;26.226;2024-01-30T06:06:50;101650.41;;;1.30;100.00
22653;BME280;11493;43.344;26.226;2024-01-30T06:09:18;101674.34;;;1.54;100.00
22653;BME280;11493;43.344;26.226;2024-01-30T06:11:45;101649.69;;;1.49;100.00
22653;BME280;11493;43.344;26.226;2024-01-30T06:14:12;101642.13;;;1.38;100.00
22653;BME280;11493;43.344;26.226;2024-01-30T06:16:39;101657.22;;;1.54;100.00
22653;BME280;11493;43.344;26.226;2024-01-30T06:19:07;101658.91;;;1.55;100.00
22653;BME280;11493;43.344;26.226;2024-01-30T06:21:34;101682.28;;;1.56;100.00
22653;BME280;11493;43.344;26.226;2024-01-30T06:24:05;101654.69;;;1.46;100.00
22653;BME280;11493;43.344;26.226;2024-01-30T06:26:32;101672.47;;;1.55;100.00
22653;BME280;11493;43.344;26.226;2024-01-30T06:28:59;101679.00;;;1.60;100.00
22653;BME280;11493;43.344;26.226;2024-01-30T06:31:26;101670.56;;;1.49;100.00
22653;BME280;11493;43.344;26.226;2024-01-30T06:33:53;101676.81;;;1.49;100.00
22653;BME280;11493;43.344;26.226;2024-01-30T06:36:20;101669.06;;;1.40;100.00
22653;BME280;11493;43.344;26.226;2024-01-30T06:38:47;101655.69;;;1.38;100.00
22653;BME280;11493;43.344;26.226;2024-01-30T06:41:15;101664.31;;;1.48;100.00
22653;BME280;11493;43.344;26.226;2024-01-30T06:43:42;101674.34;;;1.48;100.00
22653;BME280;11493;43.344;26.226;2024-01-30T06:46:12;101671.41;;;1.49;100.00
22653;BME280;11493;43.344;26.226;2024-01-30T06:48:40;101675.19;;;1.55;100.00
22653;BME280;11493;43.344;26.226;2024-01-30T06:51:07;101654.53;;;1.54;100.00
22653;BME280;11493;43.344;26.226;2024-01-30T06:53:34;101678.19;;;1.67;100.00
22653;BME280;11493;43.344;26.226;2024-01-30T06:56:02;101691.56;;;1.68;100.00
22653;BME280;11493;43.344;26.226;2024-01-30T06:58:29;101673.75;;;1.59;100.00
22653;BME280;11493;43.344;26.226;2024-01-30T07:00:56;101662.22;;;1.50;100.00
22653;BME280;11493;43.344;26.226;2024-01-30T07:03:24;101675.63;;;1.58;100.00
22653;BME280;11493;43.344;26.226;2024-01-30T07:05:51;101694.53;;;1.73;100.00
22653;BME280;11493;43.344;26.226;2024-01-30T07:08:18;101683.22;;;1.70;100.00
22653;BME280;11493;43.344;26.226;2024-01-30T07:10:45;101681.50;;;1.62;100.00
22653;BME280;11493;43.344;26.226;2024-01-30T07:13:12;101682.22;;;1.77;100.00
22653;BME280;11493;43.344;26.226;2024-01-30T07:15:39;101678.28;;;1.80;100.00
22653;BME280;11493;43.344;26.226;2024-01-30T07:18:06;101695.25;;;1.88;100.00
22653;BME280;11493;43.344;26.226;2024-01-30T07:20:34;101694.41;;;1.88;100.00
22653;BME280;11493;43.344;26.226;2024-01-30T07:23:02;101700.44;;;1.83;100.00
22653;BME280;11493;43.344;26.226;2024-01-30T07:25:30;101695.84;;;1.84;100.00
22653;BME280;11493;43.344;26.226;2024-01-30T07:27:57;101705.66;;;1.85;100.00
22653;BME280;11493;43.344;26.226;2024-01-30T07:30:24;101687.25;;;1.80;100.00
22653;BME280;11493;43.344;26.226;2024-01-30T07:32:51;101682.81;;;1.73;100.00
22653;BME280;11493;43.344;26.226;2024-01-30T07:35:18;101699.88;;;1.94;100.00
22653;BME280;11493;43.344;26.226;2024-01-30T07:37:46;101688.31;;;1.79;100.00
22653;BME280;11493;43.344;26.226;2024-01-30T07:40:13;101702.75;;;1.86;100.00
22653;BME280;11493;43.344;26.226;2024-01-30T07:42:40;101679.91;;;1.74;100.00
22653;BME280;11493;43.344;26.226;2024-01-30T07:45:08;101701.13;;;1.92;100.00
22653;BME280;11493;43.344;26.226;2024-01-30T07:47:35;101700.91;;;1.93;100.00
22653;BME280;11493;43.344;26.226;2024-01-30T07:50:02;101705.16;;;2.03;100.00
22653;BME280;11493;43.344;26.226;2024-01-30T07:52:29;101705.94;;;1.96;100.00
22653;BME280;11493;43.344;26.226;2024-01-30T07:54:56;101705.56;;;2.00;100.00
22653;BME280;11493;43.344;26.226;2024-01-30T07:57:23;101703.63;;;1.93;100.00
22653;BME280;11493;43.344;26.226;2024-01-30T07:59:51;101696.13;;;1.95;100.00
22653;BME280;11493;43.344;26.226;2024-01-30T08:02:18;101692.53;;;1.88;100.00
22653;BME280;11493;43.344;26.226;2024-01-30T08:04:45;101695.97;;;2.04;100.00
22653;BME280;11493;43.344;26.226;2024-01-30T08:07:15;101709.94;;;2.01;100.00
22653;BME280;11493;43.344;26.226;2024-01-30T08:09:44;101688.81;;;1.96;100.00
22653;BME280;11493;43.344;26.226;2024-01-30T08:12:12;101690.13;;;2.07;100.00
22653;BME280;11493;43.344;26.226;2024-01-30T08:14:40;101695.06;;;1.90;100.00
22653;BME280;11493;43.344;26.226;2024-01-30T08:17:08;101705.31;;;1.94;100.00
22653;BME280;11493;43.344;26.226;2024-01-30T08:19:35;101708.53;;;2.11;100.00
22653;BME280;11493;43.344;26.226;2024-01-30T08:22:02;101692.94;;;1.85;100.00
22653;BME280;11493;43.344;26.226;2024-01-30T08:24:30;101692.53;;;1.88;100.00
22653;BME280;11493;43.344;26.226;2024-01-30T08:26:57;101706.78;;;1.97;100.00
22653;BME280;11493;43.344;26.226;2024-01-30T08:29:25;101693.13;;;1.84;100.00
22653;BME280;11493;43.344;26.226;2024-01-30T08:31:52;101703.84;;;1.92;100.00
22653;BME280;11493;43.344;26.226;2024-01-30T08:34:20;101681.91;;;1.93;100.00
22653;BME280;11493;43.344;26.226;2024-01-30T08:36:48;101708.09;;;2.08;100.00
22653;BME280;11493;43.344;26.226;2024-01-30T08:39:15;101713.47;;;1.94;100.00
22653;BME280;11493;43.344;26.226;2024-01-30T08:41:42;101682.88;;;1.79;100.00
22653;BME280;11493;43.344;26.226;2024-01-30T08:44:09;101696.69;;;1.84;100.00
22653;BME280;11493;43.344;26.226;2024-01-30T08:46:37;101709.78;;;2.09;100.00
22653;BME280;11493;43.344;26.226;2024-01-30T08:49:05;101702.84;;;2.00;100.00
22653;BME280;11493;43.344;26.226;2024-01-30T08:51:32;101694.72;;;2.06;100.00
22653;BME280;11493;43.344;26.226;2024-01-30T08:54:00;101704.59;;;2.14;100.00
22653;BME280;11493;43.344;26.226;2024-01-30T08:56:28;101703.56;;;2.28;100.00
22653;BME280;11493;43.344;26.226;2024-01-30T08:58:55;101674.06;;;2.12;100.00
22653;BME280;11493;43.344;26.226;2024-01-30T09:01:22;101684.13;;;2.18;100.00
22653;BME280;11493;43.344;26.226;2024-01-30T09:03:49;101697.75;;;2.31;100.00
22653;BME280;11493;43.344;26.226;2024-01-30T09:06:17;101688.94;;;2.29;100.00
22653;BME280;11493;43.344;26.226;2024-01-30T09:08:44;101686.22;;;2.16;100.00
22653;BME280;11493;43.344;26.226;2024-01-30T09:11:13;101695.84;;;2.25;100.00
22653;BME280;11493;43.344;26.226;2024-01-30T09:13:41;101700.06;;;2.34;100.00
22653;BME280;11493;43.344;26.226;2024-01-30T09:16:08;101699.63;;;2.30;100.00
22653;BME280;11493;43.344;26.226;2024-01-30T09:18:35;101687.91;;;2.30;100.00
22653;BME280;11493;43.344;26.226;2024-01-30T09:21:03;101685.88;;;2.45;100.00
22653;BME280;11493;43.344;26.226;2024-01-30T09:23:30;101679.34;;;2.33;100.00
22653;BME280;11493;43.344;26.226;2024-01-30T09:25:57;101684.84;;;2.46;100.00
22653;BME280;11493;43.344;26.226;2024-01-30T09:28:24;101686.53;;;2.54;100.00
22653;BME280;11493;43.344;26.226;2024-01-30T09:30:53;101685.28;;;2.56;100.00
22653;BME280;11493;43.344;26.226;2024-01-30T09:33:21;101659.34;;;2.47;100.00
22653;BME280;11493;43.344;26.226;2024-01-30T09:35:48;101678.63;;;2.59;100.00
22653;BME280;11493;43.344;26.226;2024-01-30T09:38:15;101652.88;;;2.55;100.00
22653;BME280;11493;43.344;26.226;2024-01-30T09:40:42;101667.72;;;2.52;100.00
22653;BME280;11493;43.344;26.226;2024-01-30T09:43:16;101658.94;;;2.50;100.00
22653;BME280;11493;43.344;26.226;2024-01-30T09:45:50;101662.00;;;2.34;100.00
22653;BME280;11493;43.344;26.226;2024-01-30T09:48:17;101657.66;;;2.46;100.00
22653;BME280;11493;43.344;26.226;2024-01-30T09:50:45;101666.06;;;2.58;100.00
22653;BME280;11493;43.344;26.226;2024-01-30T09:53:13;101664.38;;;2.50;100.00
22653;BME280;11493;43.344;26.226;2024-01-30T09:55:42;101666.44;;;2.42;100.00
22653;BME280;11493;43.344;26.226;2024-01-30T09:58:09;101667.31;;;2.55;100.00
22653;BME280;11493;43.344;26.226;2024-01-30T10:00:36;101653.28;;;2.45;100.00
22653;BME280;11493;43.344;26.226;2024-01-30T10:03:04;101665.25;;;2.64;100.00
22653;BME280;11493;43.344;26.226;2024-01-30T10:05:32;101660.25;;;2.74;100.00
22653;BME280;11493;43.344;26.226;2024-01-30T10:08:07;101633.91;;;2.75;100.00
22653;BME280;11493;43.344;26.226;2024-01-30T10:10:37;101630.94;;;2.63;99.45
22653;BME280;11493;43.344;26.226;2024-01-30T10:13:04;101654.81;;;2.68;100.00
22653;BME280;11493;43.344;26.226;2024-01-30T10:15:32;101657.94;;;2.64;99.91
22653;BME280;11493;43.344;26.226;2024-01-30T10:18:02;101648.56;;;2.87;99.38
22653;BME280;11493;43.344;26.226;2024-01-30T10:20:29;101633.72;;;2.83;98.03
22653;BME280;11493;43.344;26.226;2024-01-30T10:22:57;101631.00;;;2.96;98.89
22653;BME280;11493;43.344;26.226;2024-01-30T10:25:25;101655.47;;;3.22;98.21
22653;BME280;11493;43.344;26.226;2024-01-30T10:27:53;101652.31;;;3.32;97.39
22653;BME280;11493;43.344;26.226;2024-01-30T10:30:24;101634.13;;;3.06;95.53
22653;BME280;11493;43.344;26.226;2024-01-30T10:32:51;101645.19;;;2.98;97.49
22653;BME280;11493;43.344;26.226;2024-01-30T10:35:19;101641.84;;;3.09;96.18
22653;BME280;11493;43.344;26.226;2024-01-30T10:37:47;101646.88;;;3.19;96.25
22653;BME280;11493;43.344;26.226;2024-01-30T10:40:15;101627.63;;;3.14;95.69
22653;BME280;11493;43.344;26.226;2024-01-30T10:42:45;101630.97;;;3.29;95.94
22653;BME280;11493;43.344;26.226;2024-01-30T10:45:13;101639.75;;;3.31;94.48
22653;BME280;11493;43.344;26.226;2024-01-30T10:47:44;101639.97;;;3.23;94.62
22653;BME280;11493;43.344;26.226;2024-01-30T10:50:15;101643.72;;;3.42;94.40
22653;BME280;11493;43.344;26.226;2024-01-30T10:52:43;101637.88;;;3.25;94.19
22653;BME280;11493;43.344;26.226;2024-01-30T10:55:11;101642.69;;;3.29;93.72
22653;BME280;11493;43.344;26.226;2024-01-30T10:57:38;101610.88;;;3.04;93.53
22653;BME280;11493;43.344;26.226;2024-01-30T11:00:08;101638.94;;;3.24;94.54
22653;BME280;11493;43.344;26.226;2024-01-30T11:02:47;101616.75;;;3.20;93.14
22653;BME280;11493;43.344;26.226;2024-01-30T11:05:15;101633.69;;;3.49;92.83
22653;BME280;11493;43.344;26.226;2024-01-30T11:07:50;101615.03;;;3.46;92.72
22653;BME280;11493;43.344;26.226;2024-01-30T11:10:17;101614.19;;;3.52;92.28
22653;BME280;11493;43.344;26.226;2024-01-30T11:12:46;101606.00;;;3.58;92.23
22653;BME280;11493;43.344;26.226;2024-01-30T11:15:17;101604.53;;;3.69;91.14
22653;BME280;11493;43.344;26.226;2024-01-30T11:17:51;101618.50;;;3.79;92.08
22653;BME280;11493;43.344;26.226;2024-01-30T11:20:27;101629.34;;;3.92;91.14
22653;BME280;11493;43.344;26.226;2024-01-30T11:22:56;101595.47;;;3.75;90.54
22653;BME280;11493;43.344;26.226;2024-01-30T11:25:25;101616.16;;;3.89;90.63
22653;BME280;11493;43.344;26.226;2024-01-30T11:27:55;101597.78;;;3.72;90.35
22653;BME280;11493;43.344;26.226;2024-01-30T11:30:26;101610.09;;;3.87;90.75
22653;BME280;11493;43.344;26.226;2024-01-30T11:35:37;101592.63;;;3.57;91.81
22653;BME280;11493;43.344;26.226;2024-01-30T11:38:05;101584.88;;;3.54;92.27
22653;BME280;11493;43.344;26.226;2024-01-30T11:40:33;101592.41;;;3.52;91.52
22653;BME280;11493;43.344;26.226;2024-01-30T11:43:02;101568.16;;;3.44;91.71
22653;BME280;11493;43.344;26.226;2024-01-30T11:45:30;101563.09;;;3.54;91.57
22653;BME280;11493;43.344;26.226;2024-01-30T11:47:58;101587.59;;;3.60;91.12
22653;BME280;11493;43.344;26.226;2024-01-30T11:50:32;101561.00;;;3.49;91.27
22653;BME280;11493;43.344;26.226;2024-01-30T11:53:00;101563.91;;;3.61;90.57
22653;BME280;11493;43.344;26.226;2024-01-30T11:55:29;101576.47;;;3.62;90.31
22653;BME280;11493;43.344;26.226;2024-01-30T11:58:01;101566.91;;;3.40;90.78
22653;BME280;11493;43.344;26.226;2024-01-30T12:00:29;101579.00;;;3.57;91.52
22653;BME280;11493;43.344;26.226;2024-01-30T12:02:58;101558.97;;;3.18;91.32
22653;BME280;11493;43.344;26.226;2024-01-30T12:05:28;101579.88;;;3.38;92.38
22653;BME280;11493;43.344;26.226;2024-01-30T12:07:55;101568.94;;;3.57;91.54
22653;BME280;11493;43.344;26.226;2024-01-30T12:10:27;101568.34;;;3.55;90.59
22653;BME280;11493;43.344;26.226;2024-01-30T12:12:55;101570.03;;;3.50;90.23
22653;BME280;11493;43.344;26.226;2024-01-30T12:15:24;101567.72;;;3.47;90.42
22653;BME280;11493;43.344;26.226;2024-01-30T12:17:51;101561.47;;;3.40;91.07
22653;BME280;11493;43.344;26.226;2024-01-30T12:20:19;101562.06;;;3.55;91.32
22653;BME280;11493;43.344;26.226;2024-01-30T12:22:48;101564.34;;;3.58;91.48
22653;BME280;11493;43.344;26.226;2024-01-30T12:25:17;101546.75;;;3.54;91.57
22653;BME280;11493;43.344;26.226;2024-01-30T12:27:46;101561.59;;;3.71;90.07
22653;BME280;11493;43.344;26.226;2024-01-30T12:30:18;101551.78;;;3.57;91.79
22653;BME280;11493;43.344;26.226;2024-01-30T12:32:46;101536.75;;;3.41;91.57
22653;BME280;11493;43.344;26.226;2024-01-30T12:35:17;101565.81;;;3.54;91.37
22653;BME280;11493;43.344;26.226;2024-01-30T12:37:46;101556.81;;;3.60;92.60
22653;BME280;11493;43.344;26.226;2024-01-30T12:40:14;101560.56;;;3.66;92.19
22653;BME280;11493;43.344;26.226;2024-01-30T12:42:43;101551.56;;;3.58;91.87
22653;BME280;11493;43.344;26.226;2024-01-30T12:45:13;101529.47;;;3.28;92.72
22653;BME280;11493;43.344;26.226;2024-01-30T12:47:42;101539.47;;;3.48;92.89